Time;durP1;ratioP1;P1;durP2;ratioP2;P2;SDS_P1;SDS_P2;PMS_P1;PMS_P2;Temp;Humidity;BMP_temperature;BMP_pressure;BME280_temperature;BME280_humidity;BME280_pressure;Samples;Min_cycle;Max_cycle;Signal;HPM_P1;HPM_P2
2023/07/29 00:01:33;;;;;;;1.70;1.60;;;20.20;99.90;;;;;;5000131;28;20344;-70
2023/07/29 00:03:59;;;;;;;1.50;1.40;;;20.10;99.90;;;;;;4980369;28;20560;-71
2023/07/29 00:06:24;;;;;;;1.37;1.27;;;20.10;99.90;;;;;;4997644;28;20471;-70
2023/07/29 00:08:50;;;;;;;2.30;1.90;;;20.10;99.90;;;;;;4996477;28;20232;-70
2023/07/29 00:11:16;;;;;;;1.63;1.50;;;20.10;99.90;;;;;;4999233;28;20269;-70
2023/07/29 00:13:41;;;;;;;3.23;1.60;;;20.10;99.90;;;;;;4998298;28;20322;-70
2023/07/29 00:16:07;;;;;;;3.33;2.07;;;20.10;99.90;;;;;;4996562;28;21535;-70
2023/07/29 00:18:33;;;;;;;1.50;1.40;;;20.10;99.90;;;;;;4999889;28;20798;-70
2023/07/29 00:20:58;;;;;;;1.90;1.80;;;20.00;99.90;;;;;;4997598;28;20222;-70
2023/07/29 00:23:24;;;;;;;2.00;1.90;;;20.00;99.90;;;;;;4996458;28;20648;-70
2023/07/29 00:25:50;;;;;;;1.70;1.60;;;20.00;99.90;;;;;;4996737;28;20687;-70
2023/07/29 00:28:16;;;;;;;1.53;1.43;;;20.00;99.90;;;;;;4998681;28;20224;-70
2023/07/29 00:30:41;;;;;;;2.40;2.20;;;20.00;99.90;;;;;;4996251;28;21143;-70
2023/07/29 00:33:07;;;;;;;2.30;2.10;;;20.00;99.90;;;;;;4995858;28;20224;-71
2023/07/29 00:35:33;;;;;;;1.90;1.80;;;20.00;99.90;;;;;;5015662;28;20236;-71
2023/07/29 00:37:59;;;;;;;1.90;1.80;;;20.00;99.90;;;;;;4995785;28;20483;-70
2023/07/29 00:40:28;;;;;;;1.77;1.67;;;20.00;99.90;;;;;;4997474;28;20475;-70
2023/07/29 00:42:54;;;;;;;1.70;1.60;;;20.00;99.90;;;;;;4996527;28;20485;-71
2023/07/29 00:45:20;;;;;;;1.67;1.57;;;20.00;99.90;;;;;;4998174;28;20471;-70
2023/07/29 00:47:46;;;;;;;2.50;1.90;;;19.90;99.90;;;;;;4978169;28;20270;-70
2023/07/29 00:50:13;;;;;;;2.43;2.23;;;19.80;99.90;;;;;;5013475;28;20229;-70
2023/07/29 00:52:39;;;;;;;26.93;3.50;;;19.80;99.90;;;;;;4998521;28;20515;-70
2023/07/29 00:55:06;;;;;;;1.70;1.60;;;19.80;99.90;;;;;;5012819;28;20476;-70
2023/07/29 00:57:33;;;;;;;2.03;1.93;;;19.80;99.90;;;;;;4998936;28;20344;-70
2023/07/29 00:59:59;;;;;;;2.73;1.83;;;19.90;99.90;;;;;;4996038;28;20460;-70
2023/07/29 01:02:26;;;;;;;1.83;1.73;;;19.90;99.90;;;;;;5013864;28;20464;-71
2023/07/29 01:04:54;;;;;;;2.13;2.03;;;19.90;99.90;;;;;;4997035;28;20598;-70
2023/07/29 01:07:57;;;;;;;2.50;2.30;;;19.90;99.90;;;;;;4997230;28;20478;-70
2023/07/29 01:10:29;;;;;;;2.00;1.90;;;19.90;99.90;;;;;;4995194;28;20462;-70
2023/07/29 01:13:05;;;;;;;4.67;1.80;;;19.80;99.90;;;;;;4992639;28;20515;-71
2023/07/29 01:15:37;;;;;;;1.80;1.70;;;19.80;99.90;;;;;;4996851;28;20479;-71
2023/07/29 01:18:14;;;;;;;2.10;1.90;;;19.80;99.90;;;;;;4996129;28;21522;-70
2023/07/29 01:20:42;;;;;;;2.30;2.10;;;19.80;99.90;;;;;;5015849;28;20486;-71
2023/07/29 01:23:08;;;;;;;3.00;1.80;;;19.80;99.90;;;;;;4996403;28;20467;-70
2023/07/29 01:25:34;;;;;;;1.70;1.60;;;19.80;99.90;;;;;;4996309;28;20455;-70
2023/07/29 01:28:00;;;;;;;3.20;1.67;;;19.80;99.90;;;;;;5012186;28;20557;-70
2023/07/29 01:30:37;;;;;;;1.57;1.47;;;19.80;99.90;;;;;;4995195;28;20237;-70
2023/07/29 01:33:06;;;;;;;2.27;2.00;;;19.80;99.90;;;;;;4996736;28;20884;-70
2023/07/29 01:35:42;;;;;;;1.70;1.60;;;19.80;99.90;;;;;;4997744;28;20487;-70
2023/07/29 01:38:18;;;;;;;1.70;1.60;;;19.80;99.90;;;;;;4997086;28;20495;-70
2023/07/29 01:40:45;;;;;;;1.13;1.13;;;19.80;99.90;;;;;;4980173;28;21430;-70
2023/07/29 01:43:11;;;;;;;2.07;1.60;;;19.80;99.90;;;;;;4995771;28;20484;-70
2023/07/29 01:45:38;;;;;;;2.20;2.00;;;19.80;99.90;;;;;;5012823;28;20471;-71
2023/07/29 01:48:07;;;;;;;1.90;1.80;;;19.80;99.90;;;;;;4997443;28;21967;-70
2023/07/29 01:50:34;;;;;;;2.80;1.90;;;19.80;99.90;;;;;;4994935;28;20467;-70
2023/07/29 01:53:00;;;;;;;1.67;1.57;;;19.80;99.90;;;;;;5012143;28;20579;-70
2023/07/29 01:55:26;;;;;;;2.67;2.40;;;19.70;99.90;;;;;;5002209;28;20539;-71
2023/07/29 01:57:53;;;;;;;3.43;2.57;;;19.60;99.90;;;;;;5002484;28;20475;-71
2023/07/29 02:00:19;;;;;;;2.27;2.07;;;19.60;99.90;;;;;;4983924;28;20475;-71
2023/07/29 02:02:45;;;;;;;4.03;1.97;;;19.70;99.90;;;;;;4999525;28;20996;-71
2023/07/29 02:05:11;;;;;;;2.70;1.90;;;19.70;99.90;;;;;;4996846;28;20223;-71
2023/07/29 02:07:37;;;;;;;2.40;2.17;;;19.60;99.90;;;;;;5014914;28;20800;-71
2023/07/29 02:10:03;;;;;;;1.93;1.67;;;19.60;99.90;;;;;;4999254;28;20235;-70
2023/07/29 02:12:28;;;;;;;3.87;2.00;;;19.60;99.90;;;;;;4999854;28;20244;-71
2023/07/29 02:14:54;;;;;;;2.33;2.13;;;19.60;99.90;;;;;;5000813;28;20526;-70
2023/07/29 02:17:20;;;;;;;2.83;2.27;;;19.60;99.90;;;;;;5000006;28;20223;-71
2023/07/29 02:19:46;;;;;;;2.00;1.80;;;19.70;99.90;;;;;;5000132;28;20397;-72
2023/07/29 02:22:14;;;;;;;1.90;1.80;;;19.70;99.90;;;;;;5000833;28;20462;-71
2023/07/29 02:24:40;;;;;;;2.07;1.90;;;19.70;99.90;;;;;;5000293;28;20217;-71
2023/07/29 02:27:06;;;;;;;2.33;2.00;;;19.70;99.90;;;;;;4998618;28;20462;-71
2023/07/29 02:29:32;;;;;;;2.57;1.80;;;19.70;99.90;;;;;;5000027;28;20213;-71
2023/07/29 02:31:59;;;;;;;2.00;1.90;;;19.70;99.90;;;;;;4981799;28;20905;-71
2023/07/29 02:34:25;;;;;;;1.57;1.47;;;19.80;99.90;;;;;;5000239;28;20843;-70
2023/07/29 02:36:51;;;;;;;1.63;1.53;;;19.70;99.90;;;;;;4998291;28;20513;-71
2023/07/29 02:39:17;;;;;;;1.60;1.50;;;19.70;99.90;;;;;;5019322;28;20471;-70
2023/07/29 02:41:42;;;;;;;2.40;2.20;;;19.70;99.90;;;;;;5000501;28;20232;-71
2023/07/29 02:44:08;;;;;;;3.57;2.00;;;19.80;99.90;;;;;;5015719;28;20232;-71
2023/07/29 02:46:34;;;;;;;2.60;2.40;;;19.80;99.90;;;;;;4996749;28;20224;-70
2023/07/29 02:49:01;;;;;;;3.00;2.70;;;19.80;99.90;;;;;;4996564;28;20339;-71
2023/07/29 02:51:27;;;;;;;4.37;2.33;;;19.70;99.90;;;;;;5013687;28;20227;-71
2023/07/29 02:53:52;;;;;;;2.87;2.50;;;19.70;99.90;;;;;;4999268;28;20485;-70
2023/07/29 02:56:18;;;;;;;1.93;1.83;;;19.70;99.90;;;;;;4998588;28;21534;-70
2023/07/29 02:58:44;;;;;;;1.70;1.60;;;19.70;99.90;;;;;;4999500;28;21427;-70
2023/07/29 03:01:10;;;;;;;2.20;1.77;;;19.70;99.90;;;;;;4997428;28;20673;-70
2023/07/29 03:03:37;;;;;;;2.10;2.00;;;19.70;99.90;;;;;;4998810;28;21226;-71
2023/07/29 03:06:08;;;;;;;6.20;2.20;;;19.60;99.90;;;;;;4995929;28;20513;-71
2023/07/29 03:08:35;;;;;;;2.20;2.00;;;19.60;99.90;;;;;;4999634;28;20584;-71
2023/07/29 03:11:12;;;;;;;2.83;2.10;;;19.60;99.90;;;;;;4999486;28;20475;-71
2023/07/29 03:13:37;;;;;;;2.53;2.20;;;19.60;99.90;;;;;;5017708;28;21916;-70
2023/07/29 03:16:14;;;;;;;2.03;1.93;;;19.60;99.90;;;;;;5000512;28;20487;-70
2023/07/29 03:18:45;;;;;;;2.43;2.23;;;19.60;99.90;;;;;;5003721;28;20220;-70
2023/07/29 03:21:11;;;;;;;2.00;1.57;;;19.60;99.90;;;;;;4986033;28;20477;-71
2023/07/29 03:23:37;;;;;;;2.37;2.27;;;19.50;99.90;;;;;;5002920;28;20502;-71
2023/07/29 03:26:09;;;;;;;1.83;1.73;;;19.40;99.90;;;;;;5001036;28;20498;-70
2023/07/29 03:28:42;;;;;;;1.63;1.53;;;19.40;99.90;;;;;;5004007;28;20577;-70
2023/07/29 03:31:08;;;;;;;1.80;1.70;;;19.40;99.90;;;;;;4999290;28;20468;-71
2023/07/29 03:33:34;;;;;;;1.83;1.73;;;19.30;99.90;;;;;;5004110;28;20521;-71
2023/07/29 03:36:00;;;;;;;1.70;1.60;;;19.30;99.90;;;;;;5002602;28;20476;-70
2023/07/29 03:38:26;;;;;;;3.00;2.20;;;19.30;99.90;;;;;;4987800;28;20234;-71
2023/07/29 03:40:53;;;;;;;1.90;1.80;;;19.30;99.90;;;;;;4985894;28;20318;-71
2023/07/29 03:43:19;;;;;;;2.50;1.73;;;19.40;99.90;;;;;;5001428;28;20786;-70
2023/07/29 03:45:44;;;;;;;1.67;1.57;;;19.40;99.90;;;;;;5002794;28;20497;-71
2023/07/29 03:48:10;;;;;;;2.03;1.93;;;19.40;99.90;;;;;;5001953;28;21021;-70
2023/07/29 03:50:36;;;;;;;2.27;1.97;;;19.40;99.90;;;;;;4984870;28;21551;-71
2023/07/29 03:53:05;;;;;;;1.60;1.50;;;19.40;99.90;;;;;;5003115;28;20232;-70
2023/07/29 03:55:31;;;;;;;1.83;1.70;;;19.40;99.90;;;;;;5003452;28;20471;-70
2023/07/29 03:57:58;;;;;;;2.30;2.10;;;19.40;99.90;;;;;;5001488;28;20541;-70
2023/07/29 04:00:24;;;;;;;1.67;1.57;;;19.40;99.90;;;;;;5002936;28;20455;-70
2023/07/29 04:02:50;;;;;;;1.40;1.30;;;19.40;99.90;;;;;;5002093;28;21196;-70
2023/07/29 04:05:16;;;;;;;1.87;1.67;;;19.40;99.90;;;;;;5017773;28;20225;-71
2023/07/29 04:07:42;;;;;;;2.00;1.90;;;19.50;99.90;;;;;;5001561;28;20522;-71
2023/07/29 04:10:08;;;;;;;1.67;1.57;;;19.50;99.90;;;;;;5016905;28;20225;-70
2023/07/29 04:12:34;;;;;;;1.87;1.77;;;19.40;99.90;;;;;;4993539;28;20504;-70
2023/07/29 04:14:59;;;;;;;2.00;1.80;;;19.40;99.90;;;;;;5003601;28;20528;-71
2023/07/29 04:17:25;;;;;;;4.63;2.13;;;19.40;99.90;;;;;;5001686;28;20217;-70
2023/07/29 04:19:51;;;;;;;2.13;1.90;;;19.40;99.90;;;;;;5001580;28;20241;-70
2023/07/29 04:22:18;;;;;;;2.07;1.80;;;19.40;99.90;;;;;;5019101;28;20217;-71
2023/07/29 04:24:44;;;;;;;2.80;2.00;;;19.40;99.90;;;;;;5003118;28;20487;-70
2023/07/29 04:27:09;;;;;;;3.70;1.80;;;19.40;99.90;;;;;;5000394;28;20700;-70
2023/07/29 04:29:35;;;;;;;1.77;1.67;;;19.40;99.90;;;;;;5001776;28;20342;-70
2023/07/29 04:32:05;;;;;;;5.80;2.10;;;19.40;99.90;;;;;;5001518;28;20217;-71
2023/07/29 04:34:31;;;;;;;2.23;1.80;;;19.30;99.90;;;;;;5001217;28;20455;-70
2023/07/29 04:36:57;;;;;;;1.50;1.40;;;19.40;99.90;;;;;;5000634;28;20540;-71
2023/07/29 04:39:23;;;;;;;2.23;2.03;;;19.40;99.90;;;;;;4986385;28;20932;-71
2023/07/29 04:41:49;;;;;;;2.10;1.90;;;19.40;99.90;;;;;;5000627;28;20479;-70
2023/07/29 04:44:14;;;;;;;2.00;1.80;;;19.30;99.90;;;;;;5001847;28;20225;-70
2023/07/29 04:46:40;;;;;;;1.73;1.63;;;19.30;99.90;;;;;;5001123;28;21048;-70
2023/07/29 04:49:06;;;;;;;1.53;1.43;;;19.30;99.90;;;;;;5017471;28;20430;-70
2023/07/29 04:51:32;;;;;;;1.90;1.80;;;19.30;99.90;;;;;;4984912;28;20228;-70
2023/07/29 04:53:58;;;;;;;2.10;1.90;;;19.30;99.90;;;;;;5002350;28;21735;-70
2023/07/29 04:56:24;;;;;;;1.90;1.80;;;19.30;99.90;;;;;;5002902;28;21636;-70
2023/07/29 04:58:49;;;;;;;1.53;1.43;;;19.30;99.90;;;;;;4985790;28;20471;-70
2023/07/29 05:01:15;;;;;;;2.17;1.90;;;19.30;99.90;;;;;;4998791;28;20248;-70
2023/07/29 05:03:41;;;;;;;2.40;1.50;;;19.30;99.90;;;;;;4986442;28;20247;-70
2023/07/29 05:06:07;;;;;;;1.77;1.67;;;19.30;99.90;;;;;;4998164;28;20231;-70
2023/07/29 05:08:32;;;;;;;1.90;1.80;;;19.30;99.90;;;;;;5002752;28;20848;-70
2023/07/29 05:10:58;;;;;;;1.73;1.63;;;19.40;99.90;;;;;;4998646;28;20351;-70
2023/07/29 05:13:24;;;;;;;1.87;1.60;;;19.40;99.90;;;;;;5018097;28;20944;-70
2023/07/29 05:15:50;;;;;;;1.97;1.87;;;19.40;99.90;;;;;;5002026;28;20237;-70
2023/07/29 05:18:17;;;;;;;2.20;1.80;;;19.50;99.90;;;;;;5001451;28;20263;-70
2023/07/29 05:20:42;;;;;;;1.47;1.37;;;19.50;99.90;;;;;;5002485;28;21492;-70
2023/07/29 05:23:09;;;;;;;1.67;1.57;;;19.50;99.90;;;;;;5002002;28;20460;-70
2023/07/29 05:25:34;;;;;;;1.90;1.80;;;19.50;99.90;;;;;;5017770;28;20474;-71
2023/07/29 05:28:01;;;;;;;2.00;1.90;;;19.50;99.90;;;;;;4999489;28;20809;-70
2023/07/29 05:30:30;;;;;;;2.23;2.10;;;19.50;99.90;;;;;;5001885;28;20227;-71
2023/07/29 05:32:59;;;;;;;3.23;2.33;;;19.50;99.90;;;;;;5002378;28;20491;-70
2023/07/29 05:35:25;;;;;;;2.40;1.83;;;19.50;99.90;;;;;;5004093;28;20552;-70
2023/07/29 05:37:51;;;;;;;2.23;1.90;;;19.50;99.90;;;;;;5000926;28;20467;-71
2023/07/29 05:40:17;;;;;;;2.47;2.27;;;19.40;99.90;;;;;;5000058;28;20224;-70
2023/07/29 05:42:44;;;;;;;2.53;2.33;;;19.40;99.90;;;;;;5002497;28;20311;-70
2023/07/29 05:45:11;;;;;;;3.07;2.20;;;19.40;99.90;;;;;;5017453;28;20578;-71
2023/07/29 05:47:37;;;;;;;2.60;2.40;;;19.30;99.90;;;;;;5001262;28;20464;-70
2023/07/29 05:50:04;;;;;;;2.27;2.00;;;19.30;99.90;;;;;;4984581;28;20503;-70
2023/07/29 05:52:33;;;;;;;2.00;1.90;;;19.30;99.90;;;;;;5002582;28;20827;-70
2023/07/29 05:54:59;;;;;;;2.47;2.27;;;19.30;99.90;;;;;;5001237;28;20480;-71
2023/07/29 05:57:25;;;;;;;3.20;3.00;;;19.30;99.90;;;;;;5001427;28;20460;-71
2023/07/29 05:59:50;;;;;;;2.70;2.20;;;19.40;99.90;;;;;;5002165;28;20364;-71
2023/07/29 06:02:16;;;;;;;2.60;2.40;;;19.40;99.90;;;;;;5001978;28;20239;-70
2023/07/29 06:04:42;;;;;;;2.43;2.23;;;19.40;99.90;;;;;;5000789;28;20347;-70
2023/07/29 06:07:07;;;;;;;6.80;2.20;;;19.40;99.90;;;;;;4984272;28;20835;-71
2023/07/29 06:09:34;;;;;;;1.70;1.60;;;19.40;99.90;;;;;;5000494;28;20212;-70
2023/07/29 06:11:59;;;;;;;3.73;2.23;;;19.50;99.90;;;;;;5000837;28;20470;-71
2023/07/29 06:14:25;;;;;;;2.60;2.40;;;19.50;99.90;;;;;;5000420;28;20209;-71
2023/07/29 06:16:51;;;;;;;2.00;1.90;;;19.50;99.90;;;;;;5001533;28;20243;-71
2023/07/29 06:19:18;;;;;;;2.47;2.27;;;19.50;99.90;;;;;;5000053;28;20220;-71
2023/07/29 06:21:43;;;;;;;2.53;2.33;;;19.60;99.90;;;;;;5001679;28;20220;-71
2023/07/29 06:24:09;;;;;;;2.73;2.27;;;19.60;99.90;;;;;;5000102;28;20526;-71
2023/07/29 06:26:35;;;;;;;2.23;2.13;;;19.60;99.90;;;;;;5001117;28;21260;-71
2023/07/29 06:29:00;;;;;;;2.73;2.53;;;19.60;99.90;;;;;;4982669;28;20221;-71
2023/07/29 06:31:26;;;;;;;2.50;2.30;;;19.50;99.90;;;;;;5000374;28;20340;-70
2023/07/29 06:33:52;;;;;;;3.20;2.67;;;19.50;99.90;;;;;;5001273;28;20331;-71
2023/07/29 06:36:17;;;;;;;2.40;2.20;;;19.50;99.90;;;;;;4999840;28;20241;-71
2023/07/29 06:38:43;;;;;;;3.33;3.03;;;19.50;99.90;;;;;;5013745;28;20278;-71
2023/07/29 06:41:09;;;;;;;2.80;2.60;;;19.40;99.90;;;;;;5001610;28;20240;-71
2023/07/29 06:43:34;;;;;;;3.60;2.70;;;19.40;99.90;;;;;;5003069;28;20660;-71
2023/07/29 06:46:00;;;;;;;2.50;2.20;;;19.60;99.90;;;;;;4984877;28;20278;-71
2023/07/29 06:48:25;;;;;;;2.33;2.23;;;19.60;99.90;;;;;;5002646;28;20221;-71
2023/07/29 06:50:52;;;;;;;2.93;2.63;;;19.50;99.90;;;;;;5002894;28;20306;-71
2023/07/29 06:53:17;;;;;;;2.83;2.63;;;19.50;99.90;;;;;;5002712;28;20367;-71
2023/07/29 06:55:44;;;;;;;3.53;3.30;;;19.50;99.90;;;;;;5003774;28;20479;-71
2023/07/29 06:58:10;;;;;;;3.07;2.77;;;19.40;99.90;;;;;;4987757;28;20733;-70
2023/07/29 07:00:35;;;;;;;2.90;2.60;;;19.40;99.90;;;;;;5002898;28;20463;-70
2023/07/29 07:03:01;;;;;;;2.83;2.63;;;19.40;99.90;;;;;;4987545;28;20485;-71
2023/07/29 07:05:27;;;;;;;3.27;3.07;;;19.40;99.90;;;;;;5002982;28;20236;-70
2023/07/29 07:07:53;;;;;;;3.13;2.83;;;19.50;99.90;;;;;;5021635;28;20260;-71
2023/07/29 07:10:18;;;;;;;4.37;2.77;;;19.50;99.90;;;;;;5002847;28;20707;-71
2023/07/29 07:12:44;;;;;;;2.57;2.33;;;19.50;99.90;;;;;;4988467;28;20229;-71
2023/07/29 07:15:10;;;;;;;3.50;3.20;;;19.60;99.90;;;;;;4996705;28;20233;-70
2023/07/29 07:17:36;;;;;;;3.17;2.97;;;19.50;99.90;;;;;;4999921;28;20235;-71
2023/07/29 07:20:01;;;;;;;3.23;2.93;;;19.50;99.90;;;;;;5018867;28;20474;-71
2023/07/29 07:22:27;;;;;;;2.60;2.40;;;19.50;99.90;;;;;;5002755;28;20225;-71
2023/07/29 07:24:53;;;;;;;2.83;2.63;;;19.50;99.90;;;;;;5017999;28;20939;-70
2023/07/29 07:27:18;;;;;;;3.10;2.80;;;19.60;99.90;;;;;;5005647;28;20733;-71
2023/07/29 07:29:44;;;;;;;3.47;3.20;;;19.60;99.90;;;;;;5003621;28;20311;-71
2023/07/29 07:32:10;;;;;;;3.67;3.47;;;19.70;99.90;;;;;;5003610;28;20236;-71
2023/07/29 07:34:35;;;;;;;2.90;2.70;;;19.70;99.90;;;;;;5018675;28;20259;-71
2023/07/29 07:37:01;;;;;;;3.03;2.83;;;19.80;99.90;;;;;;5003311;28;20236;-71
2023/07/29 07:39:27;;;;;;;3.30;3.00;;;19.80;99.90;;;;;;5002407;28;20225;-71
2023/07/29 07:41:52;;;;;;;2.70;2.50;;;19.70;99.90;;;;;;5002727;28;20229;-71
2023/07/29 07:44:19;;;;;;;5.73;3.30;;;19.80;99.90;;;;;;5003191;28;20236;-71
2023/07/29 07:46:45;;;;;;;3.10;2.57;;;19.80;99.90;;;;;;5004514;28;20220;-71
2023/07/29 07:49:12;;;;;;;3.57;2.53;;;19.80;99.90;;;;;;5002282;28;20883;-71
2023/07/29 07:51:38;;;;;;;2.67;2.47;;;19.80;99.90;;;;;;5001161;28;20479;-71
2023/07/29 07:54:04;;;;;;;2.13;2.03;;;19.80;99.90;;;;;;5017796;28;20471;-71
2023/07/29 07:56:30;;;;;;;2.10;2.00;;;19.80;99.90;;;;;;5000634;28;20530;-71
2023/07/29 07:58:56;;;;;;;2.40;2.20;;;19.90;99.90;;;;;;5016592;28;20253;-71
2023/07/29 08:01:21;;;;;;;2.20;2.00;;;20.00;99.90;;;;;;5000704;28;20231;-70
2023/07/29 08:03:47;;;;;;;1.60;1.50;;;20.00;99.90;;;;;;4983548;28;20342;-72
2023/07/29 08:06:13;;;;;;;1.90;1.80;;;20.00;99.90;;;;;;5015479;28;20240;-71
2023/07/29 08:08:38;;;;;;;2.07;1.70;;;20.00;99.90;;;;;;5000089;28;20231;-71
2023/07/29 08:11:04;;;;;;;1.90;1.80;;;20.10;99.90;;;;;;5000763;28;20314;-71
2023/07/29 08:13:30;;;;;;;2.23;2.00;;;20.10;99.90;;;;;;5000352;28;20233;-71
2023/07/29 08:15:56;;;;;;;1.60;1.50;;;20.20;99.90;;;;;;5000970;28;20820;-70
2023/07/29 08:18:21;;;;;;;1.33;1.23;;;20.20;99.90;;;;;;5001468;28;20248;-71
2023/07/29 08:20:58;;;;;;;3.73;1.70;;;20.30;99.90;;;;;;4999144;28;20252;-71
2023/07/29 08:23:25;;;;;;;1.30;1.20;;;20.30;99.90;;;;;;5016657;28;20232;-71
2023/07/29 08:25:56;;;;;;;1.97;1.80;;;20.30;99.90;;;;;;5000380;28;20587;-70
2023/07/29 08:28:22;;;;;;;2.00;1.53;;;20.30;99.90;;;;;;4998564;28;20475;-70
2023/07/29 08:30:48;;;;;;;1.40;1.30;;;20.40;99.90;;;;;;5001753;28;20467;-71
2023/07/29 08:33:14;;;;;;;1.63;1.53;;;20.40;99.90;;;;;;5000592;28;20515;-71
2023/07/29 08:35:40;;;;;;;2.13;1.93;;;20.50;99.90;;;;;;5000522;28;20236;-71
2023/07/29 08:38:06;;;;;;;1.60;1.50;;;20.50;99.90;;;;;;4996338;28;21962;-71
2023/07/29 08:40:34;;;;;;;1.70;1.60;;;20.60;99.90;;;;;;5001865;28;20228;-71
2023/07/29 08:43:05;;;;;;;1.73;1.53;;;20.70;99.90;;;;;;4998649;28;20232;-71
2023/07/29 08:45:34;;;;;;;1.33;1.23;;;20.70;99.90;;;;;;5001899;28;20467;-71
2023/07/29 08:48:02;;;;;;;1.23;1.20;;;20.80;99.90;;;;;;4999479;28;20493;-70
2023/07/29 08:50:29;;;;;;;1.60;1.50;;;20.90;99.90;;;;;;5002450;28;20514;-71
2023/07/29 08:52:56;;;;;;;2.07;1.87;;;21.00;99.90;;;;;;5000184;28;20470;-71
2023/07/29 08:55:22;;;;;;;1.70;1.60;;;21.10;99.90;;;;;;5001789;28;20475;-71
2023/07/29 08:57:48;;;;;;;2.00;1.90;;;21.10;99.90;;;;;;4985067;28;21505;-71
2023/07/29 09:00:14;;;;;;;1.70;1.60;;;21.20;99.90;;;;;;5001619;28;20232;-71
2023/07/29 09:02:39;;;;;;;1.73;1.63;;;21.20;99.90;;;;;;5002301;28;20278;-70
2023/07/29 09:05:05;;;;;;;1.60;1.50;;;21.10;99.90;;;;;;5002527;28;20520;-70
2023/07/29 09:07:34;;;;;;;2.80;1.60;;;21.10;99.90;;;;;;5002478;28;20474;-71
2023/07/29 09:09:59;;;;;;;2.07;1.87;;;21.10;99.90;;;;;;5000158;28;20228;-71
2023/07/29 09:12:25;;;;;;;1.70;1.60;;;21.10;99.90;;;;;;4984622;28;20617;-71
2023/07/29 09:14:56;;;;;;;1.90;1.80;;;21.00;99.90;;;;;;4999155;28;20251;-71
2023/07/29 09:17:22;;;;;;;5.30;2.00;;;21.00;99.90;;;;;;4997676;28;20246;-71
2023/07/29 09:19:51;;;;;;;2.03;1.93;;;21.10;99.90;;;;;;5000641;28;20605;-71
2023/07/29 09:22:18;;;;;;;1.90;1.80;;;21.10;99.90;;;;;;5001366;28;20224;-71
2023/07/29 09:24:45;;;;;;;2.00;1.90;;;21.20;99.90;;;;;;5017075;28;20465;-71
2023/07/29 09:27:27;;;;;;;1.90;1.80;;;21.30;99.90;;;;;;4997884;28;20923;-70
2023/07/29 09:29:53;;;;;;;2.97;1.70;;;21.50;99.90;;;;;;4999905;28;20538;-71
2023/07/29 09:32:24;;;;;;;1.90;1.80;;;21.70;99.90;;;;;;5000047;28;20468;-71
2023/07/29 09:34:49;;;;;;;2.27;2.10;;;21.80;99.90;;;;;;5016261;28;20471;-72
2023/07/29 09:37:16;;;;;;;2.33;1.90;;;21.90;99.90;;;;;;4999159;28;20505;-72
2023/07/29 09:39:45;;;;;;;2.20;1.83;;;22.00;99.90;;;;;;5016308;28;20220;-71
2023/07/29 09:42:20;;;;;;;2.90;2.60;;;22.20;99.90;;;;;;4998773;28;20475;-72
2023/07/29 09:44:48;;;;;;;1.90;1.80;;;22.20;99.90;;;;;;5001642;28;21203;-71
2023/07/29 09:47:25;;;;;;;1.83;1.73;;;22.30;99.90;;;;;;4998089;28;20458;-71
2023/07/29 09:49:51;;;;;;;1.90;1.80;;;22.40;99.90;;;;;;5001891;28;20459;-71
2023/07/29 09:52:19;;;;;;;1.83;1.73;;;22.50;99.90;;;;;;4999067;28;20466;-71
2023/07/29 09:54:45;;;;;;;1.93;1.83;;;22.50;99.90;;;;;;5002443;28;20467;-71
2023/07/29 09:57:13;;;;;;;2.70;2.20;;;22.60;99.90;;;;;;4999956;28;20486;-72
2023/07/29 09:59:39;;;;;;;2.17;1.73;;;22.80;99.90;;;;;;5001154;28;20499;-71
2023/07/29 10:02:08;;;;;;;2.10;2.00;;;22.90;99.90;;;;;;5000656;28;20465;-71
2023/07/29 10:04:34;;;;;;;2.53;2.40;;;23.00;99.90;;;;;;5001195;28;20766;-71
2023/07/29 10:07:01;;;;;;;1.97;1.87;;;23.30;99.90;;;;;;4996503;28;20482;-71
2023/07/29 10:09:28;;;;;;;3.43;3.13;;;23.40;99.90;;;;;;4999160;28;20478;-71
2023/07/29 10:11:54;;;;;;;3.40;3.10;;;23.50;99.90;;;;;;5000043;28;20479;-71
2023/07/29 10:14:21;;;;;;;2.97;2.43;;;23.50;99.90;;;;;;5000499;28;20577;-71
2023/07/29 10:16:47;;;;;;;2.00;1.90;;;23.60;99.90;;;;;;5002027;28;20685;-72
2023/07/29 10:19:16;;;;;;;1.90;1.80;;;23.70;99.90;;;;;;5002649;28;20511;-71
2023/07/29 10:21:45;;;;;;;2.20;1.80;;;23.70;99.90;;;;;;5004688;28;20545;-71
2023/07/29 10:24:16;;;;;;;2.10;1.90;;;23.70;99.90;;;;;;5001566;28;20478;-72
2023/07/29 10:26:44;;;;;;;2.20;2.10;;;23.80;99.90;;;;;;5001895;28;20474;-71
2023/07/29 10:29:13;;;;;;;1.97;1.80;;;23.80;99.90;;;;;;5000909;28;20483;-72
2023/07/29 10:31:42;;;;;;;2.10;1.90;;;23.90;99.90;;;;;;5002420;28;20475;-71
2023/07/29 10:34:08;;;;;;;1.87;1.77;;;24.20;99.90;;;;;;4998675;28;20539;-72
2023/07/29 10:36:34;;;;;;;1.80;1.70;;;24.30;99.90;;;;;;5000594;28;20565;-72
2023/07/29 10:39:00;;;;;;;2.13;2.00;;;24.40;99.90;;;;;;5000847;28;20475;-71
2023/07/29 10:41:56;;;;;;;2.90;1.90;;;24.50;99.90;;;;;;4998535;28;20476;-71
2023/07/29 10:44:43;;;;;;;3.83;3.00;;;24.70;99.90;;;;;;5000952;28;21561;-71
2023/07/29 10:47:12;;;;;;;2.10;2.00;;;24.90;99.90;;;;;;5019105;28;20463;-71
2023/07/29 10:49:51;;;;;;;2.87;2.00;;;25.00;99.90;;;;;;5019322;28;20461;-71
2023/07/29 10:52:29;;;;;;;2.00;1.90;;;25.00;99.90;;;;;;5000790;28;20491;-71
2023/07/29 10:54:55;;;;;;;2.07;1.97;;;25.10;99.90;;;;;;4998154;28;20475;-72
2023/07/29 10:57:32;;;;;;;2.43;2.23;;;25.10;99.90;;;;;;5012226;28;21880;-72
2023/07/29 10:59:58;;;;;;;2.50;2.30;;;25.20;99.90;;;;;;4998349;28;20561;-72
2023/07/29 11:02:37;;;;;;;2.77;2.57;;;25.40;99.90;;;;;;4998879;28;21722;-72
2023/07/29 11:05:17;;;;;;;2.03;1.93;;;25.30;99.90;;;;;;4999263;28;20246;-71
2023/07/29 11:07:49;;;;;;;2.30;2.20;;;25.20;99.90;;;;;;5003205;28;20493;-71
2023/07/29 11:10:15;;;;;;;2.57;2.37;;;25.30;99.90;;;;;;4976914;28;20491;-71
2023/07/29 11:12:42;;;;;;;2.10;2.00;;;25.50;99.90;;;;;;4976446;28;20468;-72
2023/07/29 11:15:11;;;;;;;1.90;1.80;;;25.50;99.90;;;;;;4975088;28;20459;-71
2023/07/29 11:17:51;;;;;;;2.30;1.80;;;25.60;99.90;;;;;;4971612;28;20654;-71
2023/07/29 11:20:20;;;;;;;1.90;1.80;;;25.60;99.90;;;;;;4999996;28;20483;-71
2023/07/29 11:22:46;;;;;;;3.20;2.00;;;25.60;99.90;;;;;;4981172;28;20474;-71
2023/07/29 11:25:13;;;;;;;2.10;2.00;;;25.60;99.90;;;;;;4995676;28;20462;-72
2023/07/29 11:27:40;;;;;;;3.83;2.17;;;25.50;99.90;;;;;;4995984;28;20811;-71
2023/07/29 11:30:08;;;;;;;2.17;1.97;;;25.40;99.90;;;;;;4997104;28;20493;-71
2023/07/29 11:32:35;;;;;;;2.10;2.00;;;25.40;99.90;;;;;;4999249;28;20916;-71
2023/07/29 11:35:14;;;;;;;2.50;1.90;;;25.30;99.90;;;;;;5017082;28;20490;-71
2023/07/29 11:37:41;;;;;;;1.70;1.60;;;25.40;99.90;;;;;;4999602;28;20517;-71
2023/07/29 11:40:11;;;;;;;1.63;1.53;;;25.60;99.90;;;;;;4998887;28;21433;-71
2023/07/29 11:42:37;;;;;;;2.40;1.80;;;25.90;99.90;;;;;;5016549;28;20455;-73
2023/07/29 11:45:05;;;;;;;1.93;1.83;;;25.90;99.90;;;;;;4982098;28;20463;-71
2023/07/29 11:47:31;;;;;;;1.80;1.70;;;25.80;99.90;;;;;;4999934;28;20462;-71
2023/07/29 11:50:02;;;;;;;1.57;1.47;;;25.80;99.90;;;;;;5002060;28;20460;-71
2023/07/29 11:52:28;;;;;;;3.60;1.87;;;25.80;99.90;;;;;;5001455;28;20313;-71
2023/07/29 11:54:54;;;;;;;1.63;1.53;;;25.50;99.90;;;;;;4999918;28;20475;-71
2023/07/29 11:57:20;;;;;;;1.80;1.60;;;25.30;99.90;;;;;;5001269;28;20475;-71
2023/07/29 11:59:47;;;;;;;1.73;1.63;;;25.30;99.90;;;;;;4999461;28;21864;-71
2023/07/29 12:02:17;;;;;;;1.70;1.60;;;25.40;99.90;;;;;;4999763;28;20501;-71
2023/07/29 12:04:46;;;;;;;1.50;1.40;;;25.50;99.90;;;;;;5002217;28;20458;-71
2023/07/29 12:07:13;;;;;;;2.23;2.07;;;25.60;99.90;;;;;;4999156;28;20471;-71
2023/07/29 12:09:39;;;;;;;2.60;1.90;;;25.70;99.90;;;;;;5001594;28;20458;-71
2023/07/29 12:12:06;;;;;;;2.00;1.90;;;25.80;99.90;;;;;;4999922;28;20462;-71
2023/07/29 12:14:32;;;;;;;2.03;1.93;;;25.90;99.90;;;;;;4999452;28;21937;-71
2023/07/29 12:17:05;;;;;;;1.83;1.73;;;26.00;99.90;;;;;;4996643;28;20481;-71
2023/07/29 12:19:33;;;;;;;1.90;1.80;;;26.10;99.90;;;;;;4984262;28;20476;-71
2023/07/29 12:22:00;;;;;;;1.83;1.73;;;26.30;99.90;;;;;;5000905;28;21121;-71
2023/07/29 12:24:26;;;;;;;1.93;1.83;;;26.30;99.90;;;;;;5001348;28;20473;-71
2023/07/29 12:26:51;;;;;;;1.70;1.60;;;26.30;99.90;;;;;;5017569;28;20466;-71
2023/07/29 12:29:19;;;;;;;1.80;1.50;;;26.50;99.90;;;;;;4997283;28;20224;-71
2023/07/29 12:31:46;;;;;;;2.10;1.87;;;26.50;99.90;;;;;;4999289;28;20224;-71
2023/07/29 12:34:19;;;;;;;2.00;1.90;;;26.50;99.90;;;;;;5002743;28;20462;-72
2023/07/29 12:36:49;;;;;;;1.50;1.40;;;26.50;99.90;;;;;;4999827;28;20489;-71
2023/07/29 12:39:21;;;;;;;1.93;1.83;;;26.70;99.90;;;;;;5015380;28;20540;-70
2023/07/29 12:41:52;;;;;;;3.03;1.60;;;26.70;99.90;;;;;;5001361;28;20495;-70
2023/07/29 12:44:18;;;;;;;1.90;1.80;;;26.80;99.90;;;;;;4968661;28;20478;-71
2023/07/29 12:46:43;;;;;;;1.70;1.60;;;26.70;99.90;;;;;;4999913;28;20478;-71
2023/07/29 12:49:09;;;;;;;2.30;2.10;;;26.80;99.90;;;;;;5016276;28;20665;-71